createdAt,value
2022-10-13T00:00:05.908Z,23.58
2022-10-13T00:02:32.280Z,18.58
2022-10-13T00:04:58.605Z,25.70
2022-10-13T00:07:25.092Z,22.45
2022-10-13T00:09:51.491Z,21.27
2022-10-13T00:12:18.207Z,24.73
2022-10-13T00:14:44.826Z,19.90
2022-10-13T00:17:11.309Z,17.85
2022-10-13T00:19:37.650Z,16.95
2022-10-13T00:22:04.185Z,21.98
2022-10-13T00:24:30.603Z,20.27
2022-10-13T00:26:59.787Z,18.83
2022-10-13T00:29:26.126Z,18.33
2022-10-13T00:31:52.559Z,20.25
2022-10-13T00:34:18.953Z,20.23
2022-10-13T00:36:45.337Z,16.67
2022-10-13T00:39:12.499Z,18.42
2022-10-13T00:41:38.970Z,22.15
2022-10-13T00:44:29.478Z,25.42
2022-10-13T00:46:56.102Z,19.02
2022-10-13T00:49:22.491Z,14.90
2022-10-13T00:51:50.152Z,26.25
2022-10-13T00:54:22.096Z,23.15
2022-10-13T00:56:51.233Z,20.40
2022-10-13T00:59:26.554Z,17.00
2022-10-13T01:01:53.340Z,24.63
2022-10-13T01:04:23.186Z,19.83
2022-10-13T01:06:50.202Z,26.48
2022-10-13T01:09:16.621Z,24.15
2022-10-13T01:12:26.244Z,18.45
2022-10-13T01:15:29.507Z,20.58
2022-10-13T01:18:25.129Z,15.73
2022-10-13T01:21:00.286Z,17.98
2022-10-13T01:23:44.562Z,31.20
2022-10-13T01:26:56.847Z,22.52
2022-10-13T01:29:44.725Z,17.40
2022-10-13T01:32:35.194Z,24.00
2022-10-13T01:35:07.332Z,19.98
2022-10-13T01:37:42.503Z,16.50
2022-10-13T01:40:40.275Z,23.02
2022-10-13T01:43:15.904Z,18.98
2022-10-13T01:45:59.046Z,21.80
2022-10-13T01:48:27.968Z,21.58
2022-10-13T01:50:57.481Z,19.20
2022-10-13T01:53:24.450Z,18.00
2022-10-13T01:55:56.869Z,16.77
2022-10-13T01:58:27.353Z,21.40
2022-10-13T02:01:04.298Z,17.88
2022-10-13T02:03:51.018Z,19.80
2022-10-13T02:06:24.869Z,25.20
2022-10-13T02:09:01.479Z,18.20
2022-10-13T02:11:28.565Z,17.50
2022-10-13T02:14:12.767Z,16.67
2022-10-13T02:16:43.272Z,21.73
2022-10-13T02:19:12.720Z,17.25
2022-10-13T02:21:39.514Z,18.17
2022-10-13T02:24:07.262Z,21.83
2022-10-13T02:26:35.220Z,17.20
2022-10-13T02:29:11.648Z,25.38
2022-10-13T02:31:39.488Z,25.08
2022-10-13T02:34:06.346Z,20.00
2022-10-13T02:36:32.946Z,20.58
2022-10-13T02:38:59.484Z,19.67
2022-10-13T02:41:26.276Z,18.40
2022-10-13T02:43:52.683Z,20.55
2022-10-13T02:46:19.115Z,24.45
2022-10-13T02:48:45.463Z,23.52
2022-10-13T02:51:12.072Z,22.38
2022-10-13T02:53:38.441Z,24.73
2022-10-13T02:56:05.001Z,21.27
2022-10-13T02:58:31.337Z,26.65
2022-10-13T03:01:08.467Z,23.13
2022-10-13T03:03:35.823Z,22.30
2022-10-13T03:06:02.761Z,22.60
2022-10-13T03:08:29.387Z,24.58
2022-10-13T03:10:56.039Z,24.65
2022-10-13T03:13:22.539Z,21.08
2022-10-13T03:15:49.075Z,21.25
2022-10-13T03:18:15.601Z,31.65
2022-10-13T03:20:44.846Z,24.50
2022-10-13T03:23:11.291Z,23.92
2022-10-13T03:25:38.259Z,23.10
2022-10-13T03:28:04.770Z,23.65
2022-10-13T03:30:31.236Z,24.05
2022-10-13T03:32:57.616Z,24.30
2022-10-13T03:35:24.061Z,26.17
2022-10-13T03:37:50.425Z,23.35
2022-10-13T03:40:17.195Z,30.23
2022-10-13T03:42:43.604Z,28.88
2022-10-13T03:45:10.684Z,29.67
2022-10-13T03:47:37.476Z,26.02
2022-10-13T03:50:05.565Z,32.97
2022-10-13T03:52:31.993Z,24.13
2022-10-13T03:54:58.568Z,24.17
2022-10-13T03:57:24.997Z,24.98
2022-10-13T03:59:51.704Z,28.60
2022-10-13T04:02:18.380Z,26.55
2022-10-13T04:04:44.995Z,26.58
2022-10-13T04:07:11.330Z,29.17
2022-10-13T04:09:37.680Z,26.52
2022-10-13T04:12:05.337Z,26.48
2022-10-13T04:14:31.689Z,30.95
2022-10-13T04:16:58.247Z,24.17
2022-10-13T04:19:25.186Z,29.70
2022-10-13T04:21:51.651Z,27.20
2022-10-13T04:24:18.237Z,28.27
2022-10-13T04:26:46.204Z,30.60
2022-10-13T04:29:12.901Z,25.13
2022-10-13T04:31:40.175Z,29.08
2022-10-13T04:34:07.718Z,31.10
2022-10-13T04:36:34.262Z,27.38
2022-10-13T04:39:00.651Z,24.15
2022-10-13T04:41:27.352Z,27.70
2022-10-13T04:43:54.388Z,31.38
2022-10-13T04:46:23.758Z,30.20
2022-10-13T04:48:50.319Z,24.03
2022-10-13T04:51:19.964Z,26.95
2022-10-13T04:53:46.851Z,30.58
2022-10-13T04:56:16.022Z,25.27
2022-10-13T04:58:44.165Z,31.08
2022-10-13T05:01:23.639Z,30.95
2022-10-13T05:03:59.673Z,27.57
2022-10-13T05:06:28.718Z,32.70
2022-10-13T05:08:56.143Z,30.40
2022-10-13T05:11:23.115Z,31.02
2022-10-13T05:13:49.743Z,27.35
2022-10-13T05:16:18.498Z,27.27
2022-10-13T05:18:45.419Z,35.85
2022-10-13T05:21:13.579Z,29.17
2022-10-13T05:23:40.425Z,27.40
2022-10-13T05:26:10.039Z,28.90
2022-10-13T05:28:36.459Z,29.83
2022-10-13T05:31:15.623Z,27.73
2022-10-13T05:33:42.791Z,33.13
2022-10-13T05:36:12.657Z,32.40
2022-10-13T05:38:39.559Z,31.38
2022-10-13T05:41:07.994Z,32.13
2022-10-13T05:43:34.654Z,36.90
2022-10-13T05:46:01.858Z,41.38
2022-10-13T05:48:28.669Z,32.38
2022-10-13T05:50:57.499Z,38.40
2022-10-13T05:53:27.755Z,39.88
2022-10-13T05:58:22.617Z,36.67
2022-10-13T06:00:49.374Z,38.72
2022-10-13T06:03:19.119Z,34.58
2022-10-13T06:05:47.483Z,43.20
2022-10-13T06:08:16.039Z,35.30
2022-10-13T06:10:43.372Z,32.75
2022-10-13T06:13:09.907Z,37.63
2022-10-13T06:15:36.312Z,37.25
2022-10-13T06:18:06.902Z,39.55
2022-10-13T06:20:33.271Z,33.50
2022-10-13T06:22:59.660Z,31.77
2022-10-13T06:25:26.096Z,37.03
2022-10-13T06:27:52.513Z,28.58
2022-10-13T06:30:18.876Z,36.60
2022-10-13T06:32:45.323Z,44.90
2022-10-13T06:35:11.833Z,45.15
2022-10-13T06:37:38.241Z,34.88
2022-10-13T06:40:05.515Z,39.80
2022-10-13T06:42:34.828Z,32.88
2022-10-13T06:45:01.276Z,30.60
2022-10-13T06:47:27.761Z,45.03
2022-10-13T06:49:54.360Z,38.00
2022-10-13T06:52:21.158Z,40.42
2022-10-13T06:54:48.012Z,43.03
2022-10-13T06:57:14.643Z,43.95
2022-10-13T06:59:41.072Z,36.72
2022-10-13T07:02:09.272Z,37.90
2022-10-13T07:04:35.620Z,43.58
2022-10-13T07:07:01.991Z,44.20
2022-10-13T07:09:28.577Z,45.90
2022-10-13T07:11:55.107Z,37.15
2022-10-13T07:14:21.684Z,36.63
2022-10-13T07:16:48.874Z,36.75
2022-10-13T07:19:15.258Z,41.80
2022-10-13T07:21:41.986Z,41.97
2022-10-13T07:24:14.686Z,34.50
2022-10-13T07:26:41.221Z,41.92
2022-10-13T07:29:08.012Z,46.53
2022-10-13T07:31:34.427Z,30.73
2022-10-13T07:34:01.137Z,44.33
2022-10-13T07:36:27.643Z,36.53
2022-10-13T07:38:54.021Z,31.85
2022-10-13T07:41:20.529Z,32.28
2022-10-13T07:43:46.960Z,46.88
2022-10-13T07:46:13.813Z,43.78
2022-10-13T07:48:40.336Z,34.20
2022-10-13T07:51:09.331Z,45.75
2022-10-13T07:53:36.024Z,35.38
2022-10-13T07:56:05.304Z,38.75
2022-10-13T07:58:31.781Z,42.88
2022-10-13T08:01:00.244Z,37.22
2022-10-13T08:03:27.823Z,32.28
2022-10-13T08:05:54.361Z,34.33
2022-10-13T08:08:21.701Z,36.75
2022-10-13T08:10:48.424Z,36.50
2022-10-13T08:13:14.810Z,37.95
2022-10-13T08:15:42.959Z,38.00
2022-10-13T08:18:14.438Z,41.22
2022-10-13T08:20:43.876Z,44.10
2022-10-13T08:23:11.258Z,34.83
2022-10-13T08:25:42.217Z,37.03
2022-10-13T08:28:24.128Z,41.17
2022-10-13T08:30:51.831Z,39.25
2022-10-13T08:33:18.323Z,40.40
2022-10-13T08:35:45.008Z,45.92
2022-10-13T08:38:11.697Z,37.72
2022-10-13T08:40:39.190Z,44.58
2022-10-13T08:43:12.741Z,37.58
2022-10-13T08:45:41.743Z,44.60
2022-10-13T08:48:18.145Z,36.00
2022-10-13T08:50:47.571Z,34.97
2022-10-13T08:53:22.404Z,41.83
2022-10-13T08:55:52.088Z,34.08
2022-10-13T08:58:31.270Z,36.45
2022-10-13T09:01:06.349Z,37.65
2022-10-13T09:03:44.042Z,43.97
2022-10-13T09:06:15.419Z,34.92
2022-10-13T09:09:00.111Z,39.15
2022-10-13T09:11:33.844Z,34.15
2022-10-13T09:14:03.539Z,35.65
2022-10-13T09:16:41.312Z,42.47
2022-10-13T09:19:15.784Z,42.90
2022-10-13T09:21:42.425Z,42.03
2022-10-13T09:24:14.164Z,41.03
2022-10-13T09:26:41.281Z,41.25
2022-10-13T09:29:16.204Z,38.95
2022-10-13T09:31:42.634Z,40.38
2022-10-13T09:34:20.989Z,41.33
2022-10-13T09:37:00.609Z,39.72
2022-10-13T09:39:27.772Z,40.40
2022-10-13T09:42:19.479Z,37.97
2022-10-13T09:44:47.019Z,33.72
2022-10-13T09:47:26.533Z,32.15
2022-10-13T09:50:07.375Z,34.55
2022-10-13T09:52:34.646Z,39.47
2022-10-13T09:55:01.035Z,39.85
2022-10-13T09:57:46.342Z,39.38
2022-10-13T10:00:19.597Z,38.50
2022-10-13T10:02:51.335Z,45.67
2022-10-13T10:05:39.402Z,39.25
2022-10-13T10:09:03.815Z,41.38
2022-10-13T10:11:38.282Z,43.50
2022-10-13T10:14:36.116Z,37.25
2022-10-13T10:17:28.590Z,49.28
2022-10-13T10:20:01.124Z,42.47
2022-10-13T10:22:49.291Z,40.03
2022-10-13T10:25:29.907Z,36.92
2022-10-13T10:28:14.140Z,37.17
2022-10-13T10:30:48.680Z,41.08
2022-10-13T10:33:21.745Z,42.38
2022-10-13T10:36:27.522Z,38.25
2022-10-13T10:39:15.131Z,40.58
2022-10-13T10:42:02.882Z,40.80
2022-10-13T10:44:51.482Z,42.63
2022-10-13T10:47:30.189Z,40.90
2022-10-13T10:50:06.382Z,34.33
2022-10-13T10:53:04.884Z,39.30
2022-10-13T10:55:54.265Z,34.05
2022-10-13T10:58:37.684Z,36.50
2022-10-13T11:01:40.270Z,37.00
2022-10-13T11:04:33.228Z,35.00
2022-10-13T11:06:59.904Z,34.42
2022-10-13T11:09:41.337Z,29.60
2022-10-13T11:12:22.775Z,37.05
2022-10-13T11:14:55.244Z,31.70
2022-10-13T11:17:33.411Z,27.83
2022-10-13T11:20:00.570Z,32.85
2022-10-13T11:22:28.821Z,36.63
2022-10-13T11:24:58.041Z,39.63
2022-10-13T11:27:35.021Z,34.00
2022-10-13T11:30:03.095Z,32.90
2022-10-13T11:32:35.276Z,33.17
2022-10-13T11:35:04.602Z,35.63
2022-10-13T11:38:05.879Z,32.28
2022-10-13T11:40:35.144Z,31.17
2022-10-13T11:43:17.124Z,30.48
2022-10-13T11:46:19.741Z,31.55
2022-10-13T11:49:23.861Z,33.88
2022-10-13T11:52:05.521Z,28.75
2022-10-13T11:54:47.840Z,32.97
2022-10-13T11:57:26.152Z,30.52
2022-10-13T11:59:56.161Z,31.08
2022-10-13T12:02:26.012Z,36.58
2022-10-13T12:05:20.552Z,35.47
2022-10-13T12:07:49.063Z,28.23
2022-10-13T12:10:34.642Z,31.60
2022-10-13T12:13:02.639Z,32.35
2022-10-13T12:15:35.624Z,36.20
2022-10-13T12:18:03.465Z,27.65
2022-10-13T12:20:32.168Z,32.83
2022-10-13T12:22:58.716Z,27.85
2022-10-13T12:25:29.047Z,33.75
2022-10-13T12:27:59.195Z,33.28
2022-10-13T12:32:57.385Z,32.60
2022-10-13T12:35:28.106Z,28.55
2022-10-13T12:37:57.001Z,28.75
2022-10-13T12:40:25.073Z,30.73
2022-10-13T12:42:51.967Z,30.92
2022-10-13T12:45:24.519Z,32.22
2022-10-13T12:47:53.794Z,32.88
2022-10-13T12:50:32.513Z,35.83
2022-10-13T12:53:09.152Z,29.08
2022-10-13T12:55:55.608Z,36.20
2022-10-13T12:58:35.968Z,35.00
2022-10-13T13:01:14.697Z,30.52
2022-10-13T13:03:43.204Z,33.17
2022-10-13T13:06:15.384Z,35.05
2022-10-13T13:08:43.427Z,32.17
2022-10-13T13:11:39.429Z,36.65
2022-10-13T13:14:45.087Z,33.17
2022-10-13T13:17:17.516Z,37.03
2022-10-13T13:19:55.732Z,32.55
2022-10-13T13:22:22.519Z,26.33
2022-10-13T13:24:52.589Z,30.42
2022-10-13T13:27:21.981Z,29.50
2022-10-13T13:29:48.850Z,35.13
2022-10-13T13:32:20.263Z,29.45
2022-10-13T13:34:47.281Z,36.17
2022-10-13T13:37:22.832Z,32.20
2022-10-13T13:39:49.521Z,34.78
2022-10-13T13:42:16.176Z,31.48
2022-10-13T13:44:42.579Z,31.25
2022-10-13T13:47:21.873Z,31.88
2022-10-13T13:49:50.712Z,29.13
2022-10-13T13:52:18.329Z,30.42
2022-10-13T13:54:45.150Z,30.98
2022-10-13T13:57:13.796Z,32.30
2022-10-13T13:59:40.493Z,30.52
2022-10-13T14:02:11.965Z,30.65
2022-10-13T14:04:38.444Z,31.73
2022-10-13T14:07:04.856Z,29.17
2022-10-13T14:09:31.361Z,31.33
2022-10-13T14:11:57.799Z,35.22
2022-10-13T14:14:24.373Z,30.17
2022-10-13T14:16:50.872Z,38.35
2022-10-13T14:19:17.280Z,33.10
2022-10-13T14:21:45.913Z,35.45
2022-10-13T14:24:15.174Z,32.50
2022-10-13T14:26:41.611Z,28.70
2022-10-13T14:29:08.296Z,35.42
2022-10-13T14:31:35.182Z,33.70
2022-10-13T14:34:01.537Z,35.33
2022-10-13T14:36:28.251Z,34.60
2022-10-13T14:38:55.067Z,36.47
2022-10-13T14:41:22.319Z,32.53
2022-10-13T14:43:55.308Z,32.28
2022-10-13T14:46:22.416Z,28.55
2022-10-13T14:48:49.457Z,27.75
2022-10-13T14:51:16.508Z,31.90
2022-10-13T14:53:45.148Z,33.75
2022-10-13T14:56:23.395Z,36.67
2022-10-13T14:58:52.071Z,33.17
2022-10-13T15:01:19.318Z,28.88
2022-10-13T15:03:46.303Z,27.95
2022-10-13T15:06:19.009Z,28.58
2022-10-13T15:08:46.150Z,30.98
2022-10-13T15:11:13.625Z,33.83
2022-10-13T15:13:41.049Z,35.13
2022-10-13T15:16:13.408Z,38.45
2022-10-13T15:18:39.897Z,28.27
2022-10-13T15:21:06.270Z,23.63
2022-10-13T15:23:32.673Z,32.33
2022-10-13T15:26:01.624Z,31.70
2022-10-13T15:28:30.458Z,30.85
2022-10-13T15:30:56.952Z,32.33
2022-10-13T15:33:23.358Z,29.42
2022-10-13T15:35:50.824Z,34.40
2022-10-13T15:38:18.992Z,30.02
2022-10-13T15:40:46.165Z,36.13
2022-10-13T15:43:12.895Z,34.40
2022-10-13T15:45:40.152Z,27.58
2022-10-13T15:48:07.908Z,32.25
2022-10-13T15:50:38.353Z,31.35
2022-10-13T15:53:04.819Z,30.05
2022-10-13T15:55:31.907Z,31.17
2022-10-13T15:57:58.362Z,21.83
2022-10-13T16:00:24.951Z,34.30
2022-10-13T16:02:52.031Z,36.85
2022-10-13T16:05:19.237Z,33.10
2022-10-13T16:07:45.794Z,26.92
2022-10-13T16:10:13.987Z,25.02
2022-10-13T16:12:45.438Z,25.90
2022-10-13T16:15:14.990Z,22.75
2022-10-13T16:17:41.757Z,23.73
2022-10-13T16:20:09.055Z,25.90
2022-10-13T16:22:35.500Z,26.23
2022-10-13T16:25:02.047Z,24.17
2022-10-13T16:27:30.918Z,28.63
2022-10-13T16:29:57.343Z,28.95
2022-10-13T16:32:25.743Z,29.55
2022-10-13T16:34:52.185Z,27.27
2022-10-13T16:37:19.155Z,29.27
2022-10-13T16:39:51.241Z,32.78
2022-10-13T16:42:18.249Z,27.73
2022-10-13T16:44:47.750Z,29.13
2022-10-13T16:47:18.217Z,28.73
2022-10-13T16:49:45.088Z,31.52
2022-10-13T16:52:11.484Z,28.48
2022-10-13T16:54:37.996Z,36.30
2022-10-13T16:57:04.627Z,38.42
2022-10-13T16:59:31.055Z,31.75
2022-10-13T17:01:59.163Z,32.83
2022-10-13T17:04:25.902Z,34.13
2022-10-13T17:06:52.292Z,46.08
2022-10-13T17:09:18.961Z,48.55
2022-10-13T17:11:45.425Z,74.20
2022-10-13T17:14:11.901Z,61.97
2022-10-13T17:16:38.383Z,48.03
2022-10-13T17:19:04.995Z,60.17
2022-10-13T17:21:31.428Z,47.30
2022-10-13T17:23:57.944Z,43.20
2022-10-13T17:26:24.397Z,42.70
2022-10-13T17:28:51.164Z,169.88
2022-10-13T17:31:20.761Z,53.25
2022-10-13T17:33:48.341Z,36.85
2022-10-13T17:36:16.381Z,38.03
2022-10-13T17:38:44.026Z,39.60
2022-10-13T17:41:11.167Z,38.88
2022-10-13T17:43:38.763Z,51.25
2022-10-13T17:46:36.935Z,44.55
2022-10-13T17:49:03.651Z,42.88
2022-10-13T17:51:30.056Z,50.97
2022-10-13T17:53:58.735Z,45.63
2022-10-13T17:56:25.530Z,50.28
2022-10-13T17:58:52.600Z,49.75
2022-10-13T18:01:21.089Z,54.97
2022-10-13T18:03:50.581Z,53.03
2022-10-13T18:06:18.469Z,58.30
2022-10-13T18:08:44.938Z,59.50
2022-10-13T18:11:14.998Z,61.95
2022-10-13T18:13:42.391Z,70.40
2022-10-13T18:16:22.973Z,60.83
2022-10-13T18:18:50.678Z,68.85
2022-10-13T18:21:19.843Z,63.70
2022-10-13T18:23:46.545Z,64.55
2022-10-13T18:26:16.277Z,76.47
2022-10-13T18:28:44.535Z,80.65
2022-10-13T18:31:13.898Z,67.00
2022-10-13T18:33:41.683Z,60.43
2022-10-13T18:36:28.978Z,63.17
2022-10-13T18:39:00.598Z,61.65
2022-10-13T18:41:26.995Z,57.13
2022-10-13T18:43:55.121Z,60.38
2022-10-13T18:46:21.621Z,65.38
2022-10-13T18:48:48.051Z,62.55
2022-10-13T18:51:15.833Z,58.33
2022-10-13T18:53:44.164Z,66.25
2022-10-13T18:56:22.526Z,65.03
2022-10-13T18:58:59.175Z,61.67
2022-10-13T19:01:27.935Z,64.55
2022-10-13T19:03:54.882Z,68.72
2022-10-13T19:06:26.599Z,66.10
2022-10-13T19:09:07.169Z,71.97
2022-10-13T19:11:34.573Z,69.95
2022-10-13T19:14:02.204Z,71.43
2022-10-13T19:16:30.678Z,72.78
2022-10-13T19:18:57.243Z,71.13
2022-10-13T19:21:23.770Z,72.18
2022-10-13T19:23:50.501Z,69.05
2022-10-13T19:26:26.437Z,67.97
2022-10-13T19:28:55.024Z,73.07
2022-10-13T19:31:23.377Z,78.90
2022-10-13T19:33:50.585Z,78.57
2022-10-13T19:36:33.021Z,73.28
2022-10-13T19:39:00.197Z,76.70
2022-10-13T19:41:31.535Z,65.00
2022-10-13T19:43:58.928Z,72.35
2022-10-13T19:46:26.581Z,62.70
2022-10-13T19:48:53.019Z,69.78
2022-10-13T19:51:19.579Z,78.55
2022-10-13T19:53:46.333Z,71.75
2022-10-13T19:56:22.031Z,71.15
2022-10-13T19:58:48.621Z,71.25
2022-10-13T20:01:15.053Z,77.85
2022-10-13T20:03:41.725Z,84.97
2022-10-13T20:06:09.249Z,76.28
2022-10-13T20:08:35.616Z,73.60
2022-10-13T20:11:09.541Z,80.68
2022-10-13T20:13:36.726Z,80.45
2022-10-13T20:16:08.111Z,75.63
2022-10-13T20:18:35.672Z,75.82
2022-10-13T20:21:06.822Z,79.20
2022-10-13T20:23:34.505Z,78.60
2022-10-13T20:26:09.406Z,79.60
2022-10-13T20:28:42.736Z,81.82
2022-10-13T20:31:11.573Z,80.38
2022-10-13T20:33:37.951Z,79.13
2022-10-13T20:36:07.560Z,76.90
2022-10-13T20:38:37.611Z,84.68
2022-10-13T20:41:17.793Z,84.93
2022-10-13T20:46:11.774Z,72.88
2022-10-13T20:49:05.543Z,86.43
2022-10-13T20:51:26.967Z,88.45
2022-10-13T20:53:54.209Z,89.70
2022-10-13T20:56:23.187Z,77.65
2022-10-13T20:58:50.164Z,89.38
2022-10-13T21:01:17.781Z,86.68
2022-10-13T21:03:44.763Z,85.53
2022-10-13T21:06:13.351Z,88.65
2022-10-13T21:08:40.407Z,85.95
2022-10-13T21:11:12.876Z,80.85
2022-10-13T21:13:41.011Z,86.40
2022-10-13T21:16:13.359Z,83.78
2022-10-13T21:18:39.737Z,84.55
2022-10-13T21:21:11.776Z,83.88
2022-10-13T21:23:38.422Z,82.47
2022-10-13T21:26:07.437Z,89.93
2022-10-13T21:28:37.023Z,84.22
2022-10-13T21:31:06.742Z,87.32
2022-10-13T21:33:35.722Z,83.25
2022-10-13T21:36:15.752Z,84.38
2022-10-13T21:38:43.720Z,79.10
2022-10-13T21:41:12.201Z,84.05
2022-10-13T21:43:38.866Z,83.53
2022-10-13T21:46:08.886Z,90.93
2022-10-13T21:48:35.738Z,76.15
2022-10-13T21:51:21.427Z,92.80
2022-10-13T21:53:53.474Z,88.70
2022-10-13T21:56:21.348Z,94.03
2022-10-13T21:58:48.972Z,86.75
2022-10-13T22:01:16.829Z,82.65
2022-10-13T22:03:43.699Z,90.28
2022-10-13T22:06:18.469Z,91.40
2022-10-13T22:08:46.574Z,91.18
2022-10-13T22:11:13.774Z,88.47
2022-10-13T22:13:40.425Z,92.95
2022-10-13T22:16:08.361Z,81.15
2022-10-13T22:18:34.873Z,92.63
2022-10-13T22:21:03.385Z,87.18
2022-10-13T22:23:30.119Z,89.30
2022-10-13T22:25:56.587Z,84.65
2022-10-13T22:28:23.990Z,85.95
2022-10-13T22:30:51.741Z,83.43
2022-10-13T22:33:21.047Z,84.97
2022-10-13T22:35:47.717Z,87.37
2022-10-13T22:38:14.281Z,87.80
2022-10-13T22:40:41.658Z,90.00
2022-10-13T22:43:08.459Z,84.78
2022-10-13T22:45:34.904Z,83.28
2022-10-13T22:48:02.145Z,89.10
2022-10-13T22:50:28.902Z,85.85
2022-10-13T22:52:55.328Z,80.25
2022-10-13T22:55:21.889Z,81.88
2022-10-13T22:57:48.282Z,80.10
2022-10-13T23:00:15.213Z,84.65
2022-10-13T23:02:41.575Z,81.28
2022-10-13T23:05:08.397Z,85.03
2022-10-13T23:07:34.847Z,89.72
2022-10-13T23:10:01.298Z,87.78
2022-10-13T23:12:27.687Z,82.35
2022-10-13T23:14:54.202Z,83.13
2022-10-13T23:17:20.889Z,83.07
2022-10-13T23:19:47.627Z,83.97
2022-10-13T23:22:14.073Z,88.13
2022-10-13T23:24:40.674Z,86.03
2022-10-13T23:27:07.202Z,83.10
2022-10-13T23:29:33.874Z,89.28
2022-10-13T23:32:00.302Z,84.93
2022-10-13T23:34:29.267Z,85.95
2022-10-13T23:36:55.853Z,92.00
2022-10-13T23:39:22.311Z,86.25
2022-10-13T23:41:49.093Z,96.85
2022-10-13T23:44:15.451Z,76.45
2022-10-13T23:46:41.899Z,85.00
2022-10-13T23:49:11.660Z,86.78
2022-10-13T23:51:38.005Z,90.15
2022-10-13T23:54:04.369Z,83.50
2022-10-13T23:56:30.763Z,86.88
2022-10-13T23:58:57.256Z,83.65
